Time;durP1;ratioP1;P1;durP2;ratioP2;P2;SDS_P1;SDS_P2;PMS_P1;PMS_P2;Temp;Humidity;BMP_temperature;BMP_pressure;BME280_temperature;BME280_humidity;BME280_pressure;Samples;Min_cycle;Max_cycle;Signal;HPM_P1;HPM_P2
2022/06/02 00:02:08;;;;;;;3.67;3.00;;;;;;;;;;4986928;28;20026;-73
2022/06/02 00:04:48;;;;;;;4.88;3.17;;;;;;;;;;4989864;28;20469;-74
2022/06/02 00:07:19;;;;;;;5.65;3.35;;;;;;;;;;4987230;28;20117;-70
2022/06/02 00:09:59;;;;;;;4.35;3.20;;;;;;;;;;4987386;28;20134;-71
2022/06/02 00:12:24;;;;;;;2.60;2.40;;;;;;;;;;4984766;28;20045;-74
2022/06/02 00:15:09;;;;;;;3.03;2.67;;;;;;;;;;4979642;28;20022;-72
2022/06/02 00:17:44;;;;;;;3.85;2.92;;;;;;;;;;4974923;28;20085;-72
2022/06/02 00:20:15;;;;;;;3.33;2.47;;;;;;;;;;4986642;28;20026;-73
2022/06/02 00:22:46;;;;;;;3.97;3.15;;;;;;;;;;4977294;28;20019;-74
2022/06/02 00:25:31;;;;;;;3.00;2.70;;;;;;;;;;4979747;28;20037;-77
2022/06/02 00:28:16;;;;;;;3.75;3.33;;;;;;;;;;4984916;28;20140;-71
2022/06/02 00:30:44;;;;;;;9.20;3.60;;;;;;;;;;4981949;28;20022;-77
2022/06/02 00:33:28;;;;;;;4.47;3.17;;;;;;;;;;4972208;28;20026;-74
2022/06/02 00:35:57;;;;;;;7.57;3.15;;;;;;;;;;4974291;28;20034;-70
2022/06/02 00:38:22;;;;;;;4.50;3.03;;;;;;;;;;4974664;28;20034;-72
2022/06/02 00:40:48;;;;;;;4.03;2.88;;;;;;;;;;4972126;28;20473;-71
2022/06/02 00:43:13;;;;;;;4.20;2.72;;;;;;;;;;4987914;28;20030;-71
2022/06/02 00:45:43;;;;;;;4.43;2.97;;;;;;;;;;4986295;28;20049;-76
2022/06/02 00:48:16;;;;;;;5.90;2.88;;;;;;;;;;4985639;28;20077;-71
2022/06/02 00:50:41;;;;;;;3.42;2.72;;;;;;;;;;4973397;28;20025;-72
2022/06/02 00:53:40;;;;;;;4.05;3.00;;;;;;;;;;4983407;28;20096;-75
2022/06/02 00:59:13;;;;;;;4.60;3.22;;;;;;;;;;4986279;28;20045;-73
2022/06/02 01:01:39;;;;;;;4.28;2.72;;;;;;;;;;4986606;28;20018;-71
2022/06/02 01:04:11;;;;;;;5.72;2.45;;;;;;;;;;4984631;28;20106;-73
2022/06/02 01:07:01;;;;;;;5.10;3.20;;;;;;;;;;4984989;28;20065;-78
2022/06/02 01:09:32;;;;;;;5.68;2.97;;;;;;;;;;4981109;28;20040;-71
2022/06/02 01:11:57;;;;;;;3.35;2.20;;;;;;;;;;4985553;28;20029;-71
2022/06/02 01:14:32;;;;;;;4.28;3.13;;;;;;;;;;4988891;28;20033;-74
2022/06/02 01:17:16;;;;;;;3.70;2.85;;;;;;;;;;4987278;28;20121;-72
2022/06/02 01:19:41;;;;;;;4.72;2.70;;;;;;;;;;4989442;28;20027;-76
2022/06/02 01:22:22;;;;;;;3.03;2.42;;;;;;;;;;4973772;28;20398;-71
2022/06/02 01:24:56;;;;;;;5.43;2.75;;;;;;;;;;4986317;28;20450;-75
2022/06/02 01:27:44;;;;;;;3.83;2.97;;;;;;;;;;4979639;28;20048;-72
2022/06/02 01:30:13;;;;;;;3.08;2.70;;;;;;;;;;4980716;28;20038;-71
2022/06/02 01:32:59;;;;;;;3.57;3.27;;;;;;;;;;4990060;28;20029;-75
2022/06/02 01:35:30;;;;;;;2.85;2.38;;;;;;;;;;4986987;28;20073;-71
2022/06/02 01:38:07;;;;;;;4.18;2.90;;;;;;;;;;4973535;28;20457;-71
2022/06/02 01:40:50;;;;;;;3.97;2.90;;;;;;;;;;4978108;28;20033;-72
2022/06/02 01:43:20;;;;;;;3.50;2.63;;;;;;;;;;4972507;28;20797;-71
2022/06/02 01:45:49;;;;;;;5.45;3.25;;;;;;;;;;4983386;28;20108;-71
2022/06/02 01:48:32;;;;;;;6.53;4.07;;;;;;;;;;4988348;28;20338;-72
2022/06/02 01:51:00;;;;;;;6.75;3.58;;;;;;;;;;4986188;28;20035;-71
2022/06/02 01:53:26;;;;;;;4.85;3.20;;;;;;;;;;4991869;28;20034;-71
2022/06/02 01:55:51;;;;;;;3.45;2.83;;;;;;;;;;4985652;28;20113;-72
2022/06/02 01:58:32;;;;;;;5.80;3.10;;;;;;;;;;4980954;28;20126;-78
2022/06/02 02:01:09;;;;;;;5.53;2.80;;;;;;;;;;4986247;28;20033;-71
2022/06/02 02:03:41;;;;;;;2.67;2.47;;;;;;;;;;4988610;28;20030;-73
2022/06/02 02:06:30;;;;;;;3.88;3.13;;;;;;;;;;4985129;28;20056;-75
2022/06/02 02:09:02;;;;;;;5.07;2.80;;;;;;;;;;4977585;28;20070;-77
2022/06/02 02:11:36;;;;;;;4.97;2.70;;;;;;;;;;4986637;28;20089;-75
2022/06/02 02:14:01;;;;;;;4.53;2.33;;;;;;;;;;4973387;28;20036;-71
2022/06/02 02:16:27;;;;;;;4.32;2.85;;;;;;;;;;4970568;28;20033;-72
2022/06/02 02:19:10;;;;;;;4.65;2.88;;;;;;;;;;4972321;28;20034;-77
2022/06/02 02:21:54;;;;;;;2.80;2.45;;;;;;;;;;4974480;28;20459;-77
2022/06/02 02:24:28;;;;;;;3.17;2.38;;;;;;;;;;4972453;28;20026;-73
2022/06/02 02:26:57;;;;;;;4.18;2.53;;;;;;;;;;4985929;28;20026;-72
2022/06/02 02:29:27;;;;;;;4.55;2.38;;;;;;;;;;4972479;28;20045;-75
2022/06/02 02:31:52;;;;;;;2.88;2.67;;;;;;;;;;4978090;28;20158;-77
2022/06/02 02:34:28;;;;;;;2.50;2.28;;;;;;;;;;4991400;28;20137;-75
2022/06/02 02:36:56;;;;;;;3.22;2.90;;;;;;;;;;4992731;28;20069;-72
2022/06/02 02:39:22;;;;;;;4.07;2.78;;;;;;;;;;4975368;28;20107;-72
2022/06/02 02:41:47;;;;;;;3.05;2.50;;;;;;;;;;4988867;28;20334;-72
2022/06/02 02:44:25;;;;;;;3.28;2.80;;;;;;;;;;5009082;28;20030;-72
2022/06/02 02:46:59;;;;;;;4.88;3.33;;;;;;;;;;4975537;28;20066;-71
2022/06/02 02:49:37;;;;;;;3.72;3.10;;;;;;;;;;5013340;28;20117;-72
2022/06/02 02:52:02;;;;;;;4.95;2.90;;;;;;;;;;4980633;28;20021;-72
2022/06/02 02:54:37;;;;;;;3.30;3.00;;;;;;;;;;4977697;28;20101;-71
2022/06/02 02:57:14;;;;;;;4.80;3.30;;;;;;;;;;4986883;28;20056;-71
2022/06/02 02:59:55;;;;;;;3.53;2.85;;;;;;;;;;4982808;28;20077;-72
2022/06/02 03:02:30;;;;;;;3.95;2.97;;;;;;;;;;4984304;28;20030;-76
2022/06/02 03:05:13;;;;;;;3.30;2.60;;;;;;;;;;4981500;28;20032;-73
2022/06/02 03:07:38;;;;;;;2.92;2.67;;;;;;;;;;4940043;28;20042;-76
2022/06/02 03:10:07;;;;;;;3.40;2.72;;;;;;;;;;4983682;28;20369;-76
2022/06/02 03:12:34;;;;;;;3.50;2.40;;;;;;;;;;4979884;28;20045;-71
2022/06/02 03:15:11;;;;;;;3.40;3.10;;;;;;;;;;4980758;28;20021;-72
2022/06/02 03:17:57;;;;;;;3.65;3.05;;;;;;;;;;4984645;28;20048;-79
2022/06/02 03:20:32;;;;;;;3.47;2.90;;;;;;;;;;4963341;28;21284;-72
2022/06/02 03:23:04;;;;;;;3.92;2.55;;;;;;;;;;4987517;28;20343;-77
2022/06/02 03:25:48;;;;;;;3.05;2.80;;;;;;;;;;4975411;28;20424;-72
2022/06/02 03:28:20;;;;;;;3.10;2.80;;;;;;;;;;4976982;28;20511;-72
2022/06/02 03:30:52;;;;;;;5.40;3.67;;;;;;;;;;4974989;28;20026;-72
2022/06/02 03:33:30;;;;;;;4.38;3.75;;;;;;;;;;4976263;28;20026;-74
2022/06/02 03:35:58;;;;;;;4.22;3.83;;;;;;;;;;4987546;28;20045;-78
2022/06/02 03:38:30;;;;;;;4.80;3.33;;;;;;;;;;4985675;28;20381;-72
2022/06/02 03:41:15;;;;;;;5.55;2.88;;;;;;;;;;4981042;28;20124;-72
2022/06/02 03:43:47;;;;;;;4.65;3.55;;;;;;;;;;4983403;28;20042;-72
2022/06/02 03:46:38;;;;;;;4.25;3.03;;;;;;;;;;4981875;28;20038;-72
2022/06/02 03:49:23;;;;;;;2.78;2.45;;;;;;;;;;4983085;28;20030;-72
2022/06/02 03:51:58;;;;;;;4.85;2.97;;;;;;;;;;4984060;28;20049;-75
2022/06/02 03:54:33;;;;;;;4.85;3.10;;;;;;;;;;4961632;28;20022;-74
2022/06/02 03:56:58;;;;;;;6.30;2.78;;;;;;;;;;4979764;28;20049;-73
2022/06/02 03:59:26;;;;;;;4.45;2.97;;;;;;;;;;4984865;28;20041;-77
2022/06/02 04:01:56;;;;;;;4.15;3.00;;;;;;;;;;4982107;28;20026;-74
2022/06/02 04:04:21;;;;;;;;;;;;;;;;;;4980931;28;20075;-76
2022/06/02 04:07:02;;;;;;;6.60;3.17;;;;;;;;;;4980639;28;19980;-76
2022/06/02 04:09:48;;;;;;;3.38;2.75;;;;;;;;;;4970649;28;20019;-72
2022/06/02 04:15:13;;;;;;;4.40;2.75;;;;;;;;;;4987455;28;20125;-72
2022/06/02 04:17:44;;;;;;;4.35;3.28;;;;;;;;;;4988947;28;20353;-76
2022/06/02 04:20:40;;;;;;;3.65;2.97;;;;;;;;;;4989302;28;20462;-74
2022/06/02 04:23:08;;;;;;;4.03;3.40;;;;;;;;;;4969412;28;20042;-71
2022/06/02 04:25:38;;;;;;;4.45;3.15;;;;;;;;;;4986640;28;20022;-71
2022/06/02 04:28:10;;;;;;;5.72;3.65;;;;;;;;;;4972248;28;20072;-71
2022/06/02 04:30:41;;;;;;;3.85;2.88;;;;;;;;;;4985949;28;20070;-71
2022/06/02 04:33:08;;;;;;;3.50;3.20;;;;;;;;;;4986836;28;20026;-72
2022/06/02 04:35:51;;;;;;;5.78;3.08;;;;;;;;;;4986915;28;20022;-71
2022/06/02 04:38:22;;;;;;;5.20;3.17;;;;;;;;;;4983022;28;20096;-71
2022/06/02 04:40:59;;;;;;;6.82;3.22;;;;;;;;;;4981043;28;20026;-72
2022/06/02 04:43:44;;;;;;;4.10;3.10;;;;;;;;;;4980683;28;20030;-72
2022/06/02 04:46:15;;;;;;;3.40;2.80;;;;;;;;;;4991082;28;20100;-77
2022/06/02 04:49:19;;;;;;;4.75;3.03;;;;;;;;;;4980342;28;20045;-71
2022/06/02 04:52:03;;;;;;;4.85;3.13;;;;;;;;;;4927793;29;20827;-76
2022/06/02 04:54:34;;;;;;;5.50;3.05;;;;;;;;;;4919262;29;20035;-69
2022/06/02 04:57:03;;;;;;;5.50;2.90;;;;;;;;;;4948293;28;20137;-71
2022/06/02 04:59:40;;;;;;;5.50;3.20;;;;;;;;;;4967758;28;20023;-72
2022/06/02 05:02:12;;;;;;;5.03;3.13;;;;;;;;;;4975752;28;20418;-72
2022/06/02 05:04:43;;;;;;;4.38;2.92;;;;;;;;;;4967228;28;20080;-73
2022/06/02 05:07:27;;;;;;;5.38;2.90;;;;;;;;;;4968472;28;20473;-71
2022/06/02 05:09:59;;;;;;;5.93;2.78;;;;;;;;;;4968697;28;20048;-70
2022/06/02 05:12:43;;;;;;;6.68;3.95;;;;;;;;;;4974074;28;20034;-70
2022/06/02 05:15:14;;;;;;;12.05;5.50;;;;;;;;;;4975169;28;20037;-70
2022/06/02 05:17:54;;;;;;;18.58;9.98;;;;;;;;;;4989901;28;20473;-70
2022/06/02 05:20:31;;;;;;;21.77;10.23;;;;;;;;;;4985876;28;20113;-70
2022/06/02 05:22:57;;;;;;;15.13;6.90;;;;;;;;;;4983159;28;20070;-72
2022/06/02 05:25:25;;;;;;;10.52;5.50;;;;;;;;;;4970182;28;20046;-71
2022/06/02 05:28:00;;;;;;;7.03;3.97;;;;;;;;;;4984931;28;20026;-74
2022/06/02 05:30:29;;;;;;;4.50;3.33;;;;;;;;;;4972353;28;20027;-71
2022/06/02 05:33:00;;;;;;;10.68;3.35;;;;;;;;;;4971571;28;20072;-71
2022/06/02 05:35:44;;;;;;;4.80;2.92;;;;;;;;;;4991451;28;20473;-70
2022/06/02 05:38:28;;;;;;;5.32;3.25;;;;;;;;;;4988607;28;20038;-70
2022/06/02 05:40:53;;;;;;;8.85;3.50;;;;;;;;;;4987405;28;20037;-68
2022/06/02 05:43:37;;;;;;;6.60;2.85;;;;;;;;;;4990499;28;20034;-74
2022/06/02 05:46:05;;;;;;;5.35;3.08;;;;;;;;;;4976746;28;20110;-74
2022/06/02 05:48:45;;;;;;;3.55;2.70;;;;;;;;;;4973998;28;20034;-70
2022/06/02 05:51:14;;;;;;;5.68;2.20;;;;;;;;;;4987404;28;20401;-73
2022/06/02 05:53:58;;;;;;;2.75;2.47;;;;;;;;;;4973409;28;20383;-72
2022/06/02 05:56:39;;;;;;;5.97;3.13;;;;;;;;;;4986154;28;20419;-72
2022/06/02 05:59:23;;;;;;;4.50;2.50;;;;;;;;;;4976718;28;20029;-72
2022/06/02 06:02:07;;;;;;;5.68;2.42;;;;;;;;;;4989061;28;20562;-75
2022/06/02 06:04:44;;;;;;;3.97;2.25;;;;;;;;;;4991675;28;20037;-77
2022/06/02 06:07:27;;;;;;;3.17;2.42;;;;;;;;;;4989247;28;20339;-70
2022/06/02 06:10:07;;;;;;;5.18;2.70;;;;;;;;;;4988160;28;20040;-75
2022/06/02 06:12:32;;;;;;;7.88;3.30;;;;;;;;;;4986020;28;20026;-71
2022/06/02 06:15:06;;;;;;;5.45;4.03;;;;;;;;;;4987925;28;20365;-71
2022/06/02 06:17:32;;;;;;;7.10;4.72;;;;;;;;;;4986549;28;20097;-70
2022/06/02 06:19:57;;;;;;;7.90;4.72;;;;;;;;;;4986877;28;20038;-71
2022/06/02 06:22:23;;;;;;;7.20;3.92;;;;;;;;;;4986401;28;20030;-71
2022/06/02 06:24:53;;;;;;;8.93;4.60;;;;;;;;;;4985644;28;20353;-71
2022/06/02 06:27:33;;;;;;;5.82;3.50;;;;;;;;;;4986389;28;20037;-70
2022/06/02 06:30:10;;;;;;;10.10;3.80;;;;;;;;;;4987901;28;20105;-74
2022/06/02 06:32:38;;;;;;;11.00;3.72;;;;;;;;;;4985933;28;20105;-72
2022/06/02 06:35:22;;;;;;;4.53;3.33;;;;;;;;;;4990205;28;21029;-69
2022/06/02 06:37:54;;;;;;;5.68;3.08;;;;;;;;;;4991103;28;20079;-69
2022/06/02 06:40:59;;;;;;;5.35;2.85;;;;;;;;;;4991335;28;20026;-71
2022/06/02 06:43:33;;;;;;;3.40;2.67;;;;;;;;;;4953768;28;20038;-70
2022/06/02 06:45:58;;;;;;;10.00;4.00;;;;;;;;;;4955714;28;20031;-74
2022/06/02 06:48:25;;;;;;;2.85;2.47;;;;;;;;;;4972539;28;20189;-74
2022/06/02 06:50:54;;;;;;;5.45;3.03;;;;;;;;;;4987158;28;20088;-72
2022/06/02 06:53:19;;;;;;;5.00;3.22;;;;;;;;;;4987323;28;20038;-74
2022/06/02 06:56:04;;;;;;;2.90;2.20;;;;;;;;;;4987525;28;20111;-71
2022/06/02 06:58:29;;;;;;;3.58;2.60;;;;;;;;;;4987895;28;20035;-71
2022/06/02 07:01:06;;;;;;;4.78;2.78;;;;;;;;;;4988058;28;20038;-72
2022/06/02 07:03:39;;;;;;;2.47;2.20;;;;;;;;;;4989680;28;20441;-72
2022/06/02 07:06:21;;;;;;;8.35;2.75;;;;;;;;;;4989486;28;20041;-71
2022/06/02 07:08:54;;;;;;;3.05;2.75;;;;;;;;;;4990265;28;20026;-71
2022/06/02 07:14:11;;;;;;;3.83;2.83;;;;;;;;;;4989529;28;20076;-72
2022/06/02 07:16:39;;;;;;;5.30;2.45;;;;;;;;;;4987064;28;20030;-70
2022/06/02 07:19:23;;;;;;;3.67;2.55;;;;;;;;;;4987877;28;20027;-72
2022/06/02 07:22:08;;;;;;;5.32;2.00;;;;;;;;;;4992141;28;20048;-70
2022/06/02 07:24:55;;;;;;;3.05;2.40;;;;;;;;;;4973974;28;20044;-70
2022/06/02 07:27:35;;;;;;;4.15;2.45;;;;;;;;;;4988201;28;20548;-70
2022/06/02 07:30:14;;;;;;;4.20;2.67;;;;;;;;;;4991886;28;20026;-72
2022/06/02 07:33:02;;;;;;;4.40;2.72;;;;;;;;;;4993010;28;20033;-72
2022/06/02 07:35:34;;;;;;;9.30;2.90;;;;;;;;;;4989015;28;20651;-71
2022/06/02 07:38:02;;;;;;;4.13;2.95;;;;;;;;;;4988869;28;20030;-71
2022/06/02 07:40:46;;;;;;;8.38;2.90;;;;;;;;;;4993522;28;20705;-71
2022/06/02 07:43:30;;;;;;;6.75;2.75;;;;;;;;;;4985300;28;20042;-70
2022/06/02 07:45:56;;;;;;;2.25;2.03;;;;;;;;;;4990062;28;20034;-74
2022/06/02 07:48:22;;;;;;;2.75;2.42;;;;;;;;;;4989204;28;20046;-71
2022/06/02 07:50:53;;;;;;;3.42;2.38;;;;;;;;;;4991219;28;20029;-71
2022/06/02 07:53:27;;;;;;;4.07;2.20;;;;;;;;;;4991419;28;20093;-72
2022/06/02 07:55:59;;;;;;;3.22;2.40;;;;;;;;;;4991123;28;20431;-74
2022/06/02 07:58:31;;;;;;;3.55;2.13;;;;;;;;;;4992893;28;20045;-70
2022/06/02 08:00:59;;;;;;;3.38;2.38;;;;;;;;;;4987351;28;20037;-70
2022/06/02 08:03:30;;;;;;;4.83;2.30;;;;;;;;;;4989314;28;20023;-71
2022/06/02 08:06:16;;;;;;;6.00;2.38;;;;;;;;;;4990709;28;20423;-75
2022/06/02 08:09:01;;;;;;;6.90;2.50;;;;;;;;;;4991815;28;20037;-71
2022/06/02 08:11:39;;;;;;;2.47;2.10;;;;;;;;;;4989484;28;20122;-72
2022/06/02 08:14:10;;;;;;;2.88;1.92;;;;;;;;;;4989986;28;20109;-74
2022/06/02 08:16:36;;;;;;;4.00;2.53;;;;;;;;;;4990812;28;20030;-71
2022/06/02 08:19:01;;;;;;;3.22;2.00;;;;;;;;;;4986727;28;20038;-71
2022/06/02 08:21:26;;;;;;;3.03;2.00;;;;;;;;;;4990749;28;20112;-69
2022/06/02 08:24:07;;;;;;;2.53;2.00;;;;;;;;;;4988447;28;20131;-70
2022/06/02 08:26:41;;;;;;;3.60;2.10;;;;;;;;;;4993028;28;20607;-72
2022/06/02 08:29:17;;;;;;;4.57;2.70;;;;;;;;;;4992803;28;20037;-70
2022/06/02 08:32:01;;;;;;;3.60;2.38;;;;;;;;;;4987873;28;20034;-71
2022/06/02 08:34:26;;;;;;;4.78;2.03;;;;;;;;;;4990121;28;20030;-70
2022/06/02 08:37:02;;;;;;;3.30;2.42;;;;;;;;;;4988878;28;20057;-70
2022/06/02 08:39:34;;;;;;;3.33;1.98;;;;;;;;;;4993957;28;20426;-70
2022/06/02 08:42:05;;;;;;;2.97;2.22;;;;;;;;;;4988748;28;20026;-73
2022/06/02 08:44:49;;;;;;;4.00;1.92;;;;;;;;;;4989952;28;20327;-71
2022/06/02 08:47:33;;;;;;;3.70;1.83;;;;;;;;;;4985249;28;20037;-71
2022/06/02 08:50:11;;;;;;;3.88;2.05;;;;;;;;;;4988783;28;20037;-70
2022/06/02 08:52:37;;;;;;;2.72;2.10;;;;;;;;;;4989736;28;20180;-70
2022/06/02 08:55:02;;;;;;;3.93;2.37;;;;;;;;;;4991627;28;20518;-69
2022/06/02 08:57:42;;;;;;;2.90;1.65;;;;;;;;;;4988530;28;20371;-70
2022/06/02 09:00:14;;;;;;;4.20;2.70;;;;;;;;;;4989947;28;20574;-69
2022/06/02 09:02:57;;;;;;;3.65;2.15;;;;;;;;;;4994783;28;20030;-70
2022/06/02 09:05:35;;;;;;;3.75;2.03;;;;;;;;;;4991688;28;20438;-69
2022/06/02 09:08:03;;;;;;;4.22;2.10;;;;;;;;;;4989560;28;20037;-71
2022/06/02 09:10:34;;;;;;;4.32;1.92;;;;;;;;;;4991364;28;20034;-69
2022/06/02 09:13:15;;;;;;;3.80;1.73;;;;;;;;;;4988139;28;20100;-70
2022/06/02 09:15:56;;;;;;;4.90;1.65;;;;;;;;;;4987956;28;20026;-70
2022/06/02 09:18:40;;;;;;;1.90;1.60;;;;;;;;;;4989404;28;20085;-71
2022/06/02 09:21:21;;;;;;;5.47;3.30;;;;;;;;;;4987404;28;20037;-70
2022/06/02 09:23:56;;;;;;;3.35;2.20;;;;;;;;;;4989161;28;20457;-70
2022/06/02 09:26:29;;;;;;;6.28;1.83;;;;;;;;;;4987670;28;20605;-70
2022/06/02 09:29:06;;;;;;;2.40;1.88;;;;;;;;;;4986756;28;20085;-70
2022/06/02 09:31:50;;;;;;;2.95;2.00;;;;;;;;;;4987290;28;20042;-70
2022/06/02 09:34:34;;;;;;;1.90;1.73;;;;;;;;;;4986578;28;20033;-69
2022/06/02 09:37:02;;;;;;;4.43;1.95;;;;;;;;;;4988341;28;20053;-74
2022/06/02 09:39:42;;;;;;;4.40;1.92;;;;;;;;;;4988804;28;20486;-70
2022/06/02 09:42:42;;;;;;;2.75;1.83;;;;;;;;;;4989334;28;20038;-70
2022/06/02 09:45:19;;;;;;;3.35;1.90;;;;;;;;;;4990935;28;20349;-70
2022/06/02 09:47:57;;;;;;;4.55;1.65;;;;;;;;;;4987562;28;20422;-70
2022/06/02 09:50:28;;;;;;;2.50;1.75;;;;;;;;;;4990269;28;20034;-72
2022/06/02 09:53:13;;;;;;;2.45;1.58;;;;;;;;;;4988203;28;20026;-71
2022/06/02 09:55:57;;;;;;;2.67;2.00;;;;;;;;;;4987202;28;20462;-70
2022/06/02 09:58:31;;;;;;;3.65;1.67;;;;;;;;;;4990801;28;20038;-70
2022/06/02 10:00:56;;;;;;;3.67;1.83;;;;;;;;;;4985772;28;20026;-71
2022/06/02 10:03:25;;;;;;;3.57;2.00;;;;;;;;;;4989617;28;20096;-70
2022/06/02 10:05:59;;;;;;;4.72;1.55;;;;;;;;;;4988956;28;20275;-71
2022/06/02 10:08:38;;;;;;;3.78;1.70;;;;;;;;;;4986836;28;20342;-69
2022/06/02 10:11:04;;;;;;;;;;;;;;;;;;4987618;28;20370;-69
2022/06/02 10:13:32;;;;;;;3.10;1.80;;;;;;;;;;4989734;28;19906;-71
2022/06/02 10:16:04;;;;;;;4.90;2.05;;;;;;;;;;4988459;28;20034;-71
2022/06/02 10:18:29;;;;;;;3.00;1.73;;;;;;;;;;4985897;28;20046;-70
2022/06/02 10:20:56;;;;;;;3.05;1.83;;;;;;;;;;4989315;28;20468;-69
2022/06/02 10:23:25;;;;;;;3.65;1.50;;;;;;;;;;4986297;28;20108;-73
2022/06/02 10:26:09;;;;;;;2.47;1.77;;;;;;;;;;4987403;28;20022;-70
2022/06/02 10:28:53;;;;;;;3.00;1.75;;;;;;;;;;4986525;28;20050;-71
2022/06/02 10:31:37;;;;;;;2.95;1.88;;;;;;;;;;4985383;28;20029;-76
2022/06/02 10:34:17;;;;;;;2.58;1.83;;;;;;;;;;4986829;28;20109;-70
2022/06/02 10:36:49;;;;;;;6.13;2.40;;;;;;;;;;4990385;28;20030;-72
2022/06/02 10:39:33;;;;;;;8.43;2.10;;;;;;;;;;4987922;28;20373;-70
2022/06/02 10:42:12;;;;;;;4.53;1.75;;;;;;;;;;4987732;28;20089;-71
2022/06/02 10:44:55;;;;;;;4.15;1.38;;;;;;;;;;4986549;28;20045;-71
2022/06/02 10:47:20;;;;;;;4.90;1.63;;;;;;;;;;4986657;28;20038;-73
2022/06/02 10:49:58;;;;;;;4.63;1.53;;;;;;;;;;4987771;28;20048;-68
2022/06/02 10:52:36;;;;;;;2.95;1.70;;;;;;;;;;4986511;28;20715;-70
2022/06/02 10:55:16;;;;;;;2.63;1.40;;;;;;;;;;4992366;28;20022;-73
2022/06/02 10:58:00;;;;;;;2.35;1.60;;;;;;;;;;4993348;28;20061;-74
2022/06/02 11:00:29;;;;;;;3.00;1.63;;;;;;;;;;4994171;28;20035;-71
2022/06/02 11:03:07;;;;;;;3.72;1.85;;;;;;;;;;4990958;28;20030;-70
2022/06/02 11:05:51;;;;;;;4.53;1.60;;;;;;;;;;4990926;28;20044;-70
2022/06/02 11:08:35;;;;;;;2.08;1.70;;;;;;;;;;4994907;28;20368;-70
2022/06/02 11:11:18;;;;;;;5.88;2.05;;;;;;;;;;4989459;28;20032;-69
2022/06/02 11:14:02;;;;;;;4.30;1.75;;;;;;;;;;4996173;28;20036;-70
2022/06/02 11:16:33;;;;;;;2.92;1.63;;;;;;;;;;4991405;28;20116;-73
2022/06/02 11:19:31;;;;;;;4.20;1.52;;;;;;;;;;4991338;28;20442;-71
2022/06/02 11:22:19;;;;;;;3.22;1.60;;;;;;;;;;4993847;28;20037;-70
2022/06/02 11:24:53;;;;;;;4.15;1.65;;;;;;;;;;4986879;28;20062;-70
2022/06/02 11:27:37;;;;;;;3.72;1.80;;;;;;;;;;4989979;28;20048;-71
2022/06/02 11:30:08;;;;;;;3.38;2.15;;;;;;;;;;4990496;28;20056;-73
2022/06/02 11:32:40;;;;;;;3.58;2.53;;;;;;;;;;4990974;28;20026;-72
2022/06/02 11:35:24;;;;;;;2.42;1.95;;;;;;;;;;4991726;28;20467;-74
2022/06/02 11:37:58;;;;;;;3.38;2.20;;;;;;;;;;4992637;28;20101;-72
2022/06/02 11:40:23;;;;;;;3.25;2.28;;;;;;;;;;4987547;28;20117;-72
2022/06/02 11:43:07;;;;;;;3.77;2.10;;;;;;;;;;4989088;28;20126;-72
2022/06/02 11:45:38;;;;;;;2.30;2.08;;;;;;;;;;4991149;28;20256;-72
2022/06/02 11:48:04;;;;;;;5.78;1.88;;;;;;;;;;4989879;28;20062;-71
2022/06/02 11:50:35;;;;;;;2.80;1.97;;;;;;;;;;4986844;28;20057;-71
2022/06/02 11:53:19;;;;;;;3.22;2.17;;;;;;;;;;4993220;28;20303;-71
2022/06/02 11:56:23;;;;;;;3.60;2.42;;;;;;;;;;4989948;28;20043;-69
2022/06/02 11:59:00;;;;;;;3.65;2.22;;;;;;;;;;4951613;28;20111;-73
2022/06/02 12:01:29;;;;;;;4.95;2.90;;;;;;;;;;4950779;28;20048;-71
2022/06/02 12:04:17;;;;;;;4.25;2.58;;;;;;;;;;4975696;28;20414;-71
2022/06/02 12:07:03;;;;;;;3.53;2.25;;;;;;;;;;4974134;28;20081;-70
2022/06/02 12:09:50;;;;;;;8.43;4.35;;;;;;;;;;4988514;28;20358;-71
2022/06/02 12:12:38;;;;;;;5.53;3.33;;;;;;;;;;4972916;28;20113;-72
2022/06/02 12:15:12;;;;;;;3.40;2.10;;;;;;;;;;4974960;28;20021;-69
2022/06/02 12:17:48;;;;;;;2.95;1.77;;;;;;;;;;4972261;28;20062;-70
2022/06/02 12:20:23;;;;;;;3.20;1.63;;;;;;;;;;4975181;28;20040;-70
2022/06/02 12:23:07;;;;;;;2.33;1.80;;;;;;;;;;4957070;28;20026;-73
2022/06/02 12:25:33;;;;;;;3.50;1.95;;;;;;;;;;4979710;28;20117;-71
2022/06/02 12:28:05;;;;;;;3.47;2.10;;;;;;;;;;4987325;28;20113;-70
2022/06/02 12:30:30;;;;;;;2.97;1.90;;;;;;;;;;4988204;28;20307;-70
2022/06/02 12:33:06;;;;;;;4.40;2.13;;;;;;;;;;4973437;28;20034;-67
2022/06/02 12:35:43;;;;;;;2.58;1.98;;;;;;;;;;4990379;28;20696;-73
2022/06/02 12:38:11;;;;;;;4.53;1.98;;;;;;;;;;4989077;28;20042;-68
2022/06/02 12:40:49;;;;;;;3.90;2.00;;;;;;;;;;4989471;28;20097;-66
2022/06/02 12:43:31;;;;;;;2.47;2.10;;;;;;;;;;4975184;28;20034;-73
2022/06/02 12:46:09;;;;;;;3.70;1.90;;;;;;;;;;4981594;28;20445;-69
2022/06/02 12:48:34;;;;;;;3.45;2.03;;;;;;;;;;4970244;28;20045;-73
2022/06/02 12:51:19;;;;;;;2.22;1.88;;;;;;;;;;4975439;28;20030;-70
2022/06/02 12:53:54;;;;;;;5.55;2.70;;;;;;;;;;4985838;28;20465;-69
2022/06/02 12:56:44;;;;;;;3.33;2.60;;;;;;;;;;4986684;28;20074;-68
2022/06/02 12:59:10;;;;;;;5.13;4.25;;;;;;;;;;4989744;28;20063;-68
2022/06/02 13:01:41;;;;;;;10.95;3.72;;;;;;;;;;4989667;28;20034;-68
2022/06/02 13:04:10;;;;;;;12.00;5.03;;;;;;;;;;4989067;28;20048;-68
2022/06/02 13:06:53;;;;;;;4.88;2.30;;;;;;;;;;4991434;28;20122;-72
2022/06/02 13:09:37;;;;;;;5.60;2.13;;;;;;;;;;4986650;28;20061;-70
2022/06/02 13:12:21;;;;;;;3.17;1.65;;;;;;;;;;4989012;28;20125;-70
2022/06/02 13:14:52;;;;;;;3.97;1.85;;;;;;;;;;4992011;28;20096;-68
2022/06/02 13:17:41;;;;;;;4.68;2.00;;;;;;;;;;4987742;28;20026;-70
2022/06/02 13:20:25;;;;;;;3.70;2.20;;;;;;;;;;4968860;28;20074;-74
2022/06/02 13:23:08;;;;;;;6.22;1.95;;;;;;;;;;4986229;28;20040;-73
2022/06/02 13:25:39;;;;;;;4.22;2.05;;;;;;;;;;4989850;28;20393;-68
2022/06/02 13:28:08;;;;;;;4.07;1.88;;;;;;;;;;4990180;28;20069;-72
2022/06/02 13:30:36;;;;;;;4.03;1.92;;;;;;;;;;4989377;28;20030;-68
2022/06/02 13:33:07;;;;;;;3.47;2.33;;;;;;;;;;4985731;28;20026;-71
2022/06/02 13:35:35;;;;;;;3.33;2.35;;;;;;;;;;4987498;28;20688;-69
2022/06/02 13:38:09;;;;;;;3.35;2.13;;;;;;;;;;4987802;28;20438;-68
2022/06/02 13:40:53;;;;;;;4.10;2.00;;;;;;;;;;4987527;28;20802;-69
2022/06/02 13:43:25;;;;;;;2.42;1.73;;;;;;;;;;4987079;28;20057;-67
2022/06/02 13:45:50;;;;;;;4.85;2.25;;;;;;;;;;4988398;28;20516;-69
2022/06/02 13:48:33;;;;;;;3.05;1.67;;;;;;;;;;4983921;28;20164;-73
2022/06/02 13:51:17;;;;;;;2.00;1.50;;;;;;;;;;4978864;28;20036;-69
2022/06/02 13:57:30;;;;;;;2.40;1.67;;;;;;;;;;4979094;28;20057;-68
2022/06/02 13:59:48;;;;;;;2.72;1.80;;;;;;;;;;4977278;28;20080;-67
2022/06/02 14:02:32;;;;;;;5.43;2.00;;;;;;;;;;4974943;28;20060;-69
2022/06/02 14:04:57;;;;;;;3.78;2.00;;;;;;;;;;4986239;28;20032;-68
2022/06/02 14:07:44;;;;;;;2.50;1.70;;;;;;;;;;4980957;28;21425;-68
2022/06/02 14:10:24;;;;;;;4.68;2.28;;;;;;;;;;4977599;28;20264;-67
2022/06/02 14:13:08;;;;;;;5.35;1.92;;;;;;;;;;4976035;28;20026;-73
2022/06/02 14:15:48;;;;;;;4.03;2.47;;;;;;;;;;4979153;28;20072;-69
2022/06/02 14:18:32;;;;;;;3.25;2.50;;;;;;;;;;4969623;28;20038;-68
2022/06/02 14:20:57;;;;;;;6.82;2.30;;;;;;;;;;4983248;28;20105;-68
2022/06/02 14:23:42;;;;;;;2.97;1.90;;;;;;;;;;4983301;28;20049;-68
2022/06/02 14:26:07;;;;;;;5.18;1.77;;;;;;;;;;4976487;28;20263;-68
2022/06/02 14:28:32;;;;;;;2.45;2.10;;;;;;;;;;4977612;28;20025;-73
2022/06/02 14:31:04;;;;;;;2.35;2.00;;;;;;;;;;4984676;28;20025;-68
2022/06/02 14:33:31;;;;;;;2.35;1.58;;;;;;;;;;4984550;28;20041;-68
2022/06/02 14:35:59;;;;;;;4.97;1.67;;;;;;;;;;4982467;28;20107;-69
2022/06/02 14:38:27;;;;;;;3.53;1.73;;;;;;;;;;4988160;28;20066;-72
2022/06/02 14:41:01;;;;;;;3.17;1.77;;;;;;;;;;4994226;28;20438;-74
2022/06/02 14:43:30;;;;;;;7.28;2.22;;;;;;;;;;4991546;28;20050;-70
2022/06/02 14:46:04;;;;;;;4.25;1.80;;;;;;;;;;4992489;28;20081;-76
2022/06/02 14:48:30;;;;;;;8.75;2.22;;;;;;;;;;4990592;28;20774;-69
2022/06/02 14:51:13;;;;;;;3.92;1.85;;;;;;;;;;4982225;28;20026;-68
2022/06/02 14:53:58;;;;;;;3.45;1.63;;;;;;;;;;4981933;28;20030;-76
2022/06/02 14:56:28;;;;;;;5.72;2.33;;;;;;;;;;4988568;28;20084;-73
2022/06/02 14:59:09;;;;;;;2.42;1.67;;;;;;;;;;4993448;28;20033;-73
2022/06/02 15:01:46;;;;;;;3.58;2.13;;;;;;;;;;4988110;28;20041;-69
2022/06/02 15:04:25;;;;;;;2.63;1.73;;;;;;;;;;4983965;28;20138;-69
2022/06/02 15:07:03;;;;;;;3.90;2.00;;;;;;;;;;4976315;28;20019;-75
2022/06/02 15:09:31;;;;;;;3.03;1.55;;;;;;;;;;4975473;28;20037;-71
2022/06/02 15:12:15;;;;;;;3.13;1.70;;;;;;;;;;4982300;28;20117;-69
2022/06/02 15:14:59;;;;;;;4.80;2.92;;;;;;;;;;4981977;28;20018;-70
2022/06/02 15:17:25;;;;;;;3.38;1.77;;;;;;;;;;4929486;28;20046;-69
2022/06/02 15:19:59;;;;;;;5.95;2.10;;;;;;;;;;4978096;28;20026;-69
2022/06/02 15:22:37;;;;;;;4.00;1.80;;;;;;;;;;4984530;28;20026;-69
2022/06/02 15:25:09;;;;;;;3.75;2.03;;;;;;;;;;4981767;28;20026;-69
2022/06/02 15:27:49;;;;;;;6.18;3.05;;;;;;;;;;4986740;28;20121;-73
2022/06/02 15:30:14;;;;;;;3.83;2.30;;;;;;;;;;4984371;28;20026;-71
2022/06/02 15:32:50;;;;;;;5.85;2.40;;;;;;;;;;4988760;28;20042;-77
2022/06/02 15:35:25;;;;;;;6.28;2.20;;;;;;;;;;4976630;28;20406;-69
2022/06/02 15:38:09;;;;;;;3.65;2.60;;;;;;;;;;4977022;28;20066;-70
2022/06/02 15:40:53;;;;;;;2.92;2.17;;;;;;;;;;4981335;28;20030;-69
2022/06/02 15:43:51;;;;;;;4.25;2.42;;;;;;;;;;4983857;28;20026;-71
2022/06/02 15:46:16;;;;;;;6.25;2.38;;;;;;;;;;4947416;28;20358;-73